createdAt,value
2022-08-28T00:00:40.424Z,62.43
2022-08-28T00:03:12.184Z,63.81
2022-08-28T00:05:42.242Z,63.33
2022-08-28T00:08:14.859Z,62.55
2022-08-28T00:10:44.411Z,62.57
2022-08-28T00:13:19.076Z,62.42
2022-08-28T00:15:51.484Z,62.44
2022-08-28T00:18:20.044Z,62.27
2022-08-28T00:20:52.727Z,61.94
2022-08-28T00:23:22.020Z,61.98
2022-08-28T00:25:49.945Z,61.84
2022-08-28T00:28:24.162Z,61.73
2022-08-28T00:30:58.609Z,61.43
2022-08-28T00:33:33.423Z,61.81
2022-08-28T00:36:03.801Z,62.37
2022-08-28T00:38:35.182Z,62.10
2022-08-28T00:41:04.936Z,61.96
2022-08-28T00:43:42.428Z,61.62
2022-08-28T00:46:24.241Z,61.41
2022-08-28T00:48:52.662Z,60.74
2022-08-28T00:51:42.404Z,61.27
2022-08-28T00:54:10.316Z,61.06
2022-08-28T00:56:41.014Z,60.81
2022-08-28T00:59:17.717Z,60.82
2022-08-28T01:01:48.933Z,60.99
2022-08-28T01:04:20.857Z,61.16
2022-08-28T01:06:57.118Z,61.35
2022-08-28T01:09:30.833Z,61.58
2022-08-28T01:12:09.316Z,61.73
2022-08-28T01:14:41.882Z,61.95
2022-08-28T01:17:11.215Z,62.12
2022-08-28T01:19:57.350Z,62.37
2022-08-28T01:22:45.051Z,62.49
2022-08-28T01:25:21.392Z,62.67
2022-08-28T01:27:49.162Z,63.03
2022-08-28T01:30:21.815Z,63.15
2022-08-28T01:32:55.904Z,63.72
2022-08-28T01:35:33.402Z,63.88
2022-08-28T01:38:05.107Z,63.31
2022-08-28T01:40:41.744Z,62.77
2022-08-28T01:43:26.706Z,63.01
2022-08-28T01:46:02.024Z,63.02
2022-08-28T01:48:33.926Z,63.89
2022-08-28T01:51:04.461Z,63.94
2022-08-28T01:53:33.252Z,64.36
2022-08-28T01:56:08.153Z,64.72
2022-08-28T01:58:38.293Z,64.82
2022-08-28T02:01:17.648Z,64.41
2022-08-28T02:03:46.471Z,64.02
2022-08-28T02:06:16.686Z,64.10
2022-08-28T02:08:46.036Z,64.29
2022-08-28T02:11:14.151Z,64.46
2022-08-28T02:13:42.407Z,64.57
2022-08-28T02:16:11.749Z,64.60
2022-08-28T02:18:40.270Z,64.72
2022-08-28T02:21:10.502Z,64.75
2022-08-28T02:23:42.742Z,65.19
2022-08-28T02:26:12.825Z,64.91
2022-08-28T02:28:41.357Z,64.53
2022-08-28T02:31:11.444Z,64.86
2022-08-28T02:33:43.632Z,64.40
2022-08-28T02:36:15.628Z,64.86
2022-08-28T02:38:45.951Z,64.96
2022-08-28T02:41:14.408Z,64.30
2022-08-28T02:43:42.353Z,63.92
2022-08-28T02:46:10.565Z,63.78
2022-08-28T02:48:40.684Z,64.39
2022-08-28T02:51:13.452Z,64.09
2022-08-28T02:53:42.635Z,63.27
2022-08-28T02:56:10.843Z,63.23
2022-08-28T02:58:40.126Z,62.98
2022-08-28T03:01:12.101Z,62.77
2022-08-28T03:03:41.472Z,62.61
2022-08-28T03:06:12.784Z,62.00
2022-08-28T03:08:42.944Z,61.49
2022-08-28T03:11:12.140Z,60.95
2022-08-28T03:13:40.120Z,60.82
2022-08-28T03:16:08.596Z,60.49
2022-08-28T03:18:36.837Z,60.40
2022-08-28T03:21:05.861Z,60.27
2022-08-28T03:23:34.587Z,59.84
2022-08-28T03:26:12.761Z,57.83
2022-08-28T03:28:48.688Z,58.47
2022-08-28T03:31:22.584Z,62.29
2022-08-28T03:33:52.300Z,63.79
2022-08-28T03:36:25.861Z,63.09
2022-08-28T03:38:57.701Z,62.38
2022-08-28T03:41:29.313Z,62.04
2022-08-28T03:44:00.094Z,62.41
2022-08-28T03:46:34.962Z,62.46
2022-08-28T03:49:05.351Z,61.98
2022-08-28T03:51:35.021Z,61.68
2022-08-28T03:54:04.614Z,61.43
2022-08-28T03:56:34.924Z,61.27
2022-08-28T03:59:05.502Z,61.13
2022-08-28T04:01:33.831Z,60.35
2022-08-28T04:04:02.240Z,59.95
2022-08-28T04:06:30.777Z,59.90
2022-08-28T04:09:00.248Z,59.56
2022-08-28T04:11:29.266Z,57.74
2022-08-28T04:13:58.013Z,57.72
2022-08-28T04:16:26.010Z,59.32
2022-08-28T04:18:54.316Z,62.13
2022-08-28T04:21:24.696Z,63.41
2022-08-28T04:23:53.993Z,62.08
2022-08-28T04:26:26.212Z,60.48
2022-08-28T04:28:55.872Z,57.53
2022-08-28T04:31:31.740Z,57.02
2022-08-28T04:34:03.296Z,57.27
2022-08-28T04:36:33.818Z,58.02
2022-08-28T04:39:05.252Z,58.18
2022-08-28T04:41:33.111Z,58.04
2022-08-28T04:44:00.871Z,57.93
2022-08-28T04:46:31.035Z,58.11
2022-08-28T04:49:00.337Z,57.54
2022-08-28T04:51:29.252Z,56.98
2022-08-28T04:53:58.328Z,56.92
2022-08-28T04:56:27.135Z,56.73
2022-08-28T04:58:55.212Z,55.89
2022-08-28T05:01:25.080Z,55.09
2022-08-28T05:04:02.422Z,54.58
2022-08-28T05:06:33.879Z,53.69
2022-08-28T05:09:04.207Z,53.20
2022-08-28T05:11:34.265Z,52.45
2022-08-28T05:14:06.602Z,52.14
2022-08-28T05:16:43.320Z,51.28
2022-08-28T05:19:12.533Z,49.77
2022-08-28T05:21:40.767Z,48.84
2022-08-28T05:24:09.286Z,47.41
2022-08-28T05:26:40.058Z,47.43
2022-08-28T05:29:10.104Z,48.79
2022-08-28T05:31:41.223Z,49.37
2022-08-28T05:34:10.630Z,51.73
2022-08-28T05:36:40.049Z,53.00
2022-08-28T05:39:12.267Z,54.13
2022-08-28T05:41:43.380Z,56.13
2022-08-28T05:44:18.563Z,56.37
2022-08-28T05:46:48.680Z,57.01
2022-08-28T05:49:19.711Z,57.87
2022-08-28T05:51:49.350Z,58.40
2022-08-28T05:54:17.813Z,58.88
2022-08-28T05:56:46.433Z,58.92
2022-08-28T05:59:16.123Z,58.81
2022-08-28T06:01:49.914Z,57.60
2022-08-28T06:04:25.846Z,57.96
2022-08-28T06:06:55.186Z,57.87
2022-08-28T06:09:29.613Z,58.44
2022-08-28T06:12:02.462Z,58.86
2022-08-28T06:14:32.020Z,58.41
2022-08-28T06:17:01.995Z,57.03
2022-08-28T06:19:35.457Z,57.21
2022-08-28T06:22:07.222Z,58.26
2022-08-28T06:24:36.876Z,57.80
2022-08-28T06:27:05.310Z,58.06
2022-08-28T06:29:33.253Z,58.94
2022-08-28T06:32:04.974Z,58.51
2022-08-28T06:34:33.138Z,58.98
2022-08-28T06:37:01.214Z,58.45
2022-08-28T06:39:29.220Z,58.40
2022-08-28T06:41:57.086Z,58.51
2022-08-28T06:44:24.848Z,58.51
2022-08-28T06:46:54.684Z,57.87
2022-08-28T06:49:22.913Z,58.16
2022-08-28T06:51:51.832Z,58.21
2022-08-28T06:54:23.131Z,58.34
2022-08-28T06:56:52.955Z,58.32
2022-08-28T06:59:21.250Z,58.01
2022-08-28T07:01:49.475Z,57.64
2022-08-28T07:04:17.457Z,57.64
2022-08-28T07:06:47.151Z,57.66
2022-08-28T07:09:16.566Z,57.62
2022-08-28T07:11:49.260Z,57.53
2022-08-28T07:14:17.351Z,57.27
2022-08-28T07:16:45.370Z,56.40
2022-08-28T07:19:14.220Z,55.76
2022-08-28T07:21:46.071Z,55.93
2022-08-28T07:24:17.644Z,55.10
2022-08-28T07:26:48.075Z,54.45
2022-08-28T07:29:18.078Z,54.86
2022-08-28T07:31:51.206Z,54.50
2022-08-28T07:34:26.861Z,53.90
2022-08-28T07:36:58.398Z,53.66
2022-08-28T07:39:26.275Z,54.12
2022-08-28T07:41:54.130Z,52.61
2022-08-28T07:44:55.112Z,52.18
2022-08-28T07:47:26.174Z,51.79
2022-08-28T07:49:54.856Z,51.55
2022-08-28T07:52:23.150Z,51.94
2022-08-28T07:54:51.991Z,51.65
2022-08-28T07:57:21.365Z,51.98
2022-08-28T07:59:52.560Z,51.11
2022-08-28T08:02:20.668Z,50.67
2022-08-28T08:04:52.834Z,50.66
2022-08-28T08:07:39.720Z,50.67
2022-08-28T08:10:19.837Z,50.75
2022-08-28T08:12:58.735Z,48.75
2022-08-28T08:15:31.270Z,49.77
2022-08-28T08:18:02.496Z,49.67
2022-08-28T08:20:30.284Z,49.16
2022-08-28T08:22:59.263Z,48.01
2022-08-28T08:25:27.008Z,48.37
2022-08-28T08:27:58.031Z,48.28
2022-08-28T08:30:25.959Z,48.39
2022-08-28T08:32:59.717Z,47.37
2022-08-28T08:35:28.017Z,47.40
2022-08-28T08:37:55.815Z,48.43
2022-08-28T08:40:25.412Z,47.80
2022-08-28T08:43:07.714Z,47.29
2022-08-28T08:45:43.278Z,47.73
2022-08-28T08:48:46.975Z,47.23
2022-08-28T08:51:38.534Z,46.31
2022-08-28T08:54:15.267Z,46.60
2022-08-28T08:56:54.875Z,46.69
2022-08-28T08:59:33.632Z,47.25
2022-08-28T09:02:22.878Z,46.94
2022-08-28T09:05:10.327Z,47.09
2022-08-28T09:08:13.640Z,46.39
2022-08-28T09:10:54.017Z,46.60
2022-08-28T09:13:51.471Z,45.95
2022-08-28T09:16:30.943Z,45.83
2022-08-28T09:19:01.273Z,45.74
2022-08-28T09:21:39.219Z,45.63
2022-08-28T09:24:32.246Z,44.97
2022-08-28T09:27:06.969Z,44.82
2022-08-28T09:29:43.524Z,44.22
2022-08-28T09:32:34.806Z,44.17
2022-08-28T09:35:28.270Z,44.89
2022-08-28T09:38:21.524Z,44.16
2022-08-28T09:41:15.880Z,43.93
2022-08-28T09:43:46.741Z,43.62
2022-08-28T09:46:27.969Z,43.47
2022-08-28T09:49:14.385Z,43.50
2022-08-28T09:51:42.397Z,42.49
2022-08-28T09:54:22.123Z,42.33
2022-08-28T09:56:52.587Z,41.94
2022-08-28T09:59:25.225Z,41.03
2022-08-28T10:01:56.266Z,41.67
2022-08-28T10:04:51.423Z,41.68
2022-08-28T10:08:18.480Z,41.52
2022-08-28T10:11:00.687Z,42.73
2022-08-28T10:13:43.846Z,42.10
2022-08-28T10:16:43.104Z,41.68
2022-08-28T10:19:27.546Z,40.89
2022-08-28T10:22:32.948Z,39.91
2022-08-28T10:25:12.608Z,38.46
2022-08-28T10:28:02.938Z,37.32
2022-08-28T10:30:37.157Z,37.46
2022-08-28T10:33:42.656Z,36.62
2022-08-28T10:36:34.013Z,38.24
2022-08-28T10:39:45.240Z,38.12
2022-08-28T10:42:15.938Z,38.39
2022-08-28T10:45:08.836Z,36.86
2022-08-28T10:47:42.196Z,35.73
2022-08-28T10:50:24.014Z,35.86
2022-08-28T10:53:06.475Z,35.24
2022-08-28T10:56:03.153Z,36.68
2022-08-28T10:58:38.320Z,37.43
2022-08-28T11:01:33.457Z,37.43
2022-08-28T11:04:15.543Z,36.74
2022-08-28T11:06:54.892Z,37.86
2022-08-28T11:09:49.073Z,38.09
2022-08-28T11:12:16.862Z,38.32
2022-08-28T11:14:51.138Z,37.99
2022-08-28T11:17:21.898Z,38.08
2022-08-28T11:20:28.749Z,37.91
2022-08-28T11:23:20.603Z,37.66
2022-08-28T11:25:58.662Z,38.33
2022-08-28T11:28:43.781Z,38.29
2022-08-28T11:31:28.530Z,38.43
2022-08-28T11:34:02.860Z,39.33
2022-08-28T11:36:32.997Z,40.40
2022-08-28T11:39:13.283Z,41.29
2022-08-28T11:42:29.072Z,42.07
2022-08-28T11:44:57.306Z,43.06
2022-08-28T11:47:37.253Z,43.85
2022-08-28T11:50:28.394Z,44.15
2022-08-28T11:53:33.928Z,44.49
2022-08-28T11:56:31.037Z,45.11
2022-08-28T11:59:40.283Z,45.92
2022-08-28T12:02:39.520Z,47.11
2022-08-28T12:05:16.562Z,47.61
2022-08-28T12:07:49.732Z,48.89
2022-08-28T12:10:20.576Z,50.05
2022-08-28T12:12:48.953Z,50.74
2022-08-28T12:15:31.311Z,51.51
2022-08-28T12:18:12.019Z,52.01
2022-08-28T12:21:07.221Z,52.98
2022-08-28T12:24:03.020Z,53.68
2022-08-28T12:26:46.320Z,53.77
2022-08-28T12:29:36.504Z,54.82
2022-08-28T12:32:35.270Z,55.18
2022-08-28T12:35:03.081Z,57.28
2022-08-28T12:37:57.642Z,58.54
2022-08-28T12:40:30.644Z,58.77
2022-08-28T12:43:06.744Z,63.13
2022-08-28T12:45:51.072Z,64.84
2022-08-28T12:48:31.729Z,63.02
2022-08-28T12:51:08.186Z,60.70
2022-08-28T12:53:46.427Z,57.88
2022-08-28T12:56:18.820Z,58.65
2022-08-28T12:58:48.097Z,59.48
2022-08-28T13:01:33.347Z,61.46
2022-08-28T13:04:36.105Z,63.44
2022-08-28T13:07:18.755Z,63.40
2022-08-28T13:09:52.287Z,61.20
2022-08-28T13:12:55.882Z,59.03
2022-08-28T13:16:01.095Z,58.24
2022-08-28T13:18:36.847Z,60.09
2022-08-28T13:21:36.389Z,63.36
2022-08-28T13:24:22.504Z,62.77
2022-08-28T13:27:00.921Z,62.31
2022-08-28T13:29:29.290Z,61.61
2022-08-28T13:32:08.510Z,61.04
2022-08-28T13:34:47.713Z,60.40
2022-08-28T13:37:47.155Z,61.02
2022-08-28T13:40:53.532Z,58.08
2022-08-28T13:43:11.208Z,57.49
2022-08-28T13:45:44.379Z,59.35
2022-08-28T13:48:15.995Z,58.85
2022-08-28T13:50:47.998Z,58.40
2022-08-28T13:53:20.976Z,58.91
2022-08-28T13:55:50.901Z,59.19
2022-08-28T13:58:19.784Z,59.11
2022-08-28T14:00:52.266Z,59.19
2022-08-28T14:03:38.430Z,59.20
2022-08-28T14:06:12.717Z,59.62
2022-08-28T14:08:43.924Z,60.18
2022-08-28T14:11:15.779Z,60.43
2022-08-28T14:13:46.913Z,60.60
2022-08-28T14:16:27.781Z,60.26
2022-08-28T14:18:55.760Z,59.74
2022-08-28T14:21:24.851Z,59.88
2022-08-28T14:23:53.051Z,60.11
2022-08-28T14:26:20.894Z,60.01
2022-08-28T14:28:48.798Z,59.95
2022-08-28T14:31:17.231Z,59.80
2022-08-28T14:33:46.314Z,59.74
2022-08-28T14:36:18.215Z,59.51
2022-08-28T14:38:46.156Z,59.55
2022-08-28T14:41:15.183Z,59.46
2022-08-28T14:43:48.316Z,59.39
2022-08-28T14:46:19.883Z,59.34
2022-08-28T14:48:49.310Z,59.04
2022-08-28T14:51:19.230Z,58.78
2022-08-28T14:53:50.756Z,58.27
2022-08-28T14:56:21.258Z,57.78
2022-08-28T14:58:49.259Z,56.91
2022-08-28T15:01:39.489Z,56.74
2022-08-28T15:04:14.399Z,57.25
2022-08-28T15:06:43.751Z,57.47
2022-08-28T15:09:14.158Z,57.77
2022-08-28T15:11:44.755Z,57.94
2022-08-28T15:14:13.471Z,57.98
2022-08-28T15:16:45.805Z,57.85
2022-08-28T15:19:18.780Z,58.02
2022-08-28T15:21:56.540Z,58.37
2022-08-28T15:24:31.079Z,58.73
2022-08-28T15:26:59.936Z,58.86
2022-08-28T15:29:30.067Z,58.84
2022-08-28T15:31:59.002Z,58.96
2022-08-28T15:34:28.651Z,59.16
2022-08-28T15:36:58.665Z,59.08
2022-08-28T15:39:47.391Z,59.02
2022-08-28T15:42:15.731Z,59.08
2022-08-28T15:44:43.895Z,59.28
2022-08-28T15:47:14.151Z,59.24
2022-08-28T15:49:46.913Z,59.02
2022-08-28T15:52:19.506Z,59.07
2022-08-28T15:54:49.761Z,58.91
2022-08-28T15:57:18.672Z,58.96
2022-08-28T15:59:49.870Z,58.90
2022-08-28T16:02:23.300Z,59.00
2022-08-28T16:04:53.247Z,58.93
2022-08-28T16:07:23.868Z,58.74
2022-08-28T16:09:52.648Z,58.90
2022-08-28T16:12:20.927Z,58.65
2022-08-28T16:14:50.538Z,58.33
2022-08-28T16:17:21.461Z,58.50
2022-08-28T16:19:49.492Z,58.40
2022-08-28T16:22:18.760Z,58.48
2022-08-28T16:24:47.073Z,58.56
2022-08-28T16:27:16.856Z,58.73
2022-08-28T16:29:46.166Z,58.90
2022-08-28T16:32:25.730Z,59.24
2022-08-28T16:35:10.352Z,59.11
2022-08-28T16:37:52.494Z,59.17
2022-08-28T16:40:25.378Z,59.29
2022-08-28T16:45:56.448Z,59.68
2022-08-28T16:48:32.263Z,59.86
2022-08-28T16:51:06.204Z,60.00
2022-08-28T16:53:43.218Z,60.21
2022-08-28T16:56:19.785Z,60.43
2022-08-28T16:59:10.539Z,60.87
2022-08-28T17:01:44.807Z,61.02
2022-08-28T17:07:19.739Z,63.00
2022-08-28T17:09:50.441Z,64.44
2022-08-28T17:12:40.841Z,63.14
2022-08-28T17:15:21.496Z,58.06
2022-08-28T17:18:02.598Z,57.65
2022-08-28T17:20:52.670Z,58.94
2022-08-28T17:23:20.840Z,60.27
2022-08-28T17:25:51.974Z,62.01
2022-08-28T17:28:25.922Z,63.27
2022-08-28T17:31:18.879Z,62.54
2022-08-28T17:34:05.113Z,61.75
2022-08-28T17:36:55.908Z,61.48
2022-08-28T17:40:01.007Z,58.78
2022-08-28T17:43:21.874Z,58.51
2022-08-28T17:45:53.886Z,60.61
2022-08-28T17:48:22.558Z,63.26
2022-08-28T17:51:11.738Z,63.31
2022-08-28T17:53:45.218Z,61.73
2022-08-28T17:56:35.870Z,61.35
2022-08-28T17:59:20.414Z,60.58
2022-08-28T18:01:57.589Z,59.46
2022-08-28T18:04:29.159Z,58.72
2022-08-28T18:06:59.758Z,59.95
2022-08-28T18:09:28.320Z,62.35
2022-08-28T18:11:56.354Z,63.51
2022-08-28T18:14:24.514Z,61.82
2022-08-28T18:16:53.764Z,60.82
2022-08-28T18:19:24.269Z,60.35
2022-08-28T18:21:52.371Z,60.33
2022-08-28T18:24:20.203Z,58.56
2022-08-28T18:26:48.774Z,58.90
2022-08-28T18:29:17.010Z,60.30
2022-08-28T18:31:47.566Z,63.01
2022-08-28T18:34:15.605Z,63.60
2022-08-28T18:36:45.201Z,62.39
2022-08-28T18:39:29.243Z,61.29
2022-08-28T18:41:59.079Z,61.37
2022-08-28T18:44:31.837Z,60.35
2022-08-28T18:47:06.929Z,59.93
2022-08-28T18:49:35.209Z,59.04
2022-08-28T18:52:08.146Z,59.06
2022-08-28T18:54:37.090Z,60.17
2022-08-28T18:57:19.950Z,62.89
2022-08-28T18:59:51.117Z,62.76
2022-08-28T19:02:19.402Z,61.72
2022-08-28T19:05:16.796Z,60.62
2022-08-28T19:07:51.067Z,60.47
2022-08-28T19:10:32.452Z,59.90
2022-08-28T19:13:10.420Z,58.95
2022-08-28T19:15:38.587Z,60.52
2022-08-28T19:18:13.377Z,62.82
2022-08-28T19:20:41.654Z,63.28
2022-08-28T19:23:17.989Z,62.66
2022-08-28T19:25:46.256Z,62.18
2022-08-28T19:28:14.294Z,61.30
2022-08-28T19:30:42.586Z,61.05
2022-08-28T19:33:12.878Z,60.39
2022-08-28T19:35:40.839Z,60.43
2022-08-28T19:38:12.182Z,60.05
2022-08-28T19:40:44.423Z,58.69
2022-08-28T19:43:16.901Z,58.50
2022-08-28T19:45:49.552Z,60.42
2022-08-28T19:48:22.613Z,63.44
2022-08-28T19:51:23.991Z,64.33
2022-08-28T19:53:58.343Z,62.60
2022-08-28T19:56:33.855Z,61.40
2022-08-28T19:59:09.452Z,60.96
2022-08-28T20:01:43.641Z,60.98
2022-08-28T20:04:19.504Z,60.60
2022-08-28T20:06:48.189Z,61.33
2022-08-28T20:09:17.588Z,60.94
2022-08-28T20:11:47.184Z,60.43
2022-08-28T20:14:19.520Z,60.81
2022-08-28T20:16:51.144Z,60.18
2022-08-28T20:19:20.241Z,60.67
2022-08-28T20:21:50.172Z,59.73
2022-08-28T20:24:23.828Z,60.19
2022-08-28T20:26:53.332Z,60.48
2022-08-28T20:29:21.872Z,60.45
2022-08-28T20:31:50.203Z,60.82
2022-08-28T20:34:20.141Z,61.14
2022-08-28T20:36:50.267Z,61.57
2022-08-28T20:39:20.203Z,61.95
2022-08-28T20:41:49.534Z,61.77
2022-08-28T20:44:20.230Z,61.79
2022-08-28T20:46:51.455Z,61.84
2022-08-28T20:49:22.375Z,61.86
2022-08-28T20:51:57.022Z,61.74
2022-08-28T20:54:42.105Z,61.64
2022-08-28T20:57:13.832Z,61.62
2022-08-28T20:59:44.688Z,62.08
2022-08-28T21:02:21.569Z,62.03
2022-08-28T21:04:51.321Z,61.30
2022-08-28T21:07:22.352Z,61.41
2022-08-28T21:10:05.129Z,61.57
2022-08-28T21:12:38.898Z,61.34
2022-08-28T21:15:11.353Z,61.57
2022-08-28T21:17:41.889Z,62.01
2022-08-28T21:20:14.202Z,61.90
2022-08-28T21:22:43.259Z,61.89
2022-08-28T21:25:12.160Z,62.14
2022-08-28T21:27:40.250Z,62.42
2022-08-28T21:30:13.255Z,62.62
2022-08-28T21:32:41.571Z,62.88
2022-08-28T21:35:12.789Z,62.89
2022-08-28T21:37:42.429Z,62.76
2022-08-28T21:40:14.347Z,62.72
2022-08-28T21:42:42.305Z,63.12
2022-08-28T21:45:12.419Z,63.08
2022-08-28T21:47:42.284Z,62.67
2022-08-28T21:50:11.941Z,62.47
2022-08-28T21:52:40.043Z,62.76
2022-08-28T21:55:12.946Z,62.78
2022-08-28T21:57:41.917Z,62.61
2022-08-28T22:00:21.014Z,62.63
2022-08-28T22:02:50.262Z,62.71
2022-08-28T22:05:18.551Z,62.81
2022-08-28T22:07:46.478Z,62.69
2022-08-28T22:10:15.244Z,62.66
2022-08-28T22:12:43.065Z,62.65
2022-08-28T22:15:11.123Z,62.04
2022-08-28T22:17:38.950Z,61.80
2022-08-28T22:20:07.484Z,61.65
2022-08-28T22:22:53.927Z,61.27
2022-08-28T22:25:21.929Z,60.89
2022-08-28T22:27:49.746Z,60.56
2022-08-28T22:30:17.887Z,60.70
2022-08-28T22:32:46.192Z,61.24
2022-08-28T22:35:14.060Z,61.81
2022-08-28T22:37:41.834Z,61.89
2022-08-28T22:40:13.481Z,61.77
2022-08-28T22:42:42.785Z,61.79
2022-08-28T22:45:10.901Z,61.75
2022-08-28T22:47:39.887Z,61.50
2022-08-28T22:50:09.410Z,61.29
2022-08-28T22:52:38.248Z,61.18
2022-08-28T22:55:12.375Z,61.21
2022-08-28T22:57:40.561Z,61.08
2022-08-28T23:00:15.438Z,61.23
2022-08-28T23:02:45.108Z,61.40
2022-08-28T23:05:14.874Z,61.65
2022-08-28T23:07:43.301Z,61.91
2022-08-28T23:10:14.801Z,61.82
2022-08-28T23:12:43.532Z,61.42
2022-08-28T23:15:16.313Z,61.05
2022-08-28T23:17:45.407Z,61.06
2022-08-28T23:20:19.164Z,61.23
2022-08-28T23:22:47.656Z,61.41
2022-08-28T23:25:23.487Z,61.58
2022-08-28T23:27:54.350Z,61.73
2022-08-28T23:30:23.959Z,61.96
2022-08-28T23:32:53.061Z,61.93
2022-08-28T23:35:21.692Z,61.87
2022-08-28T23:37:51.948Z,61.80
2022-08-28T23:40:24.211Z,61.68
2022-08-28T23:42:53.557Z,61.68
2022-08-28T23:45:21.798Z,61.84
2022-08-28T23:47:50.279Z,62.10
2022-08-28T23:50:22.572Z,62.48
2022-08-28T23:52:50.822Z,62.78
2022-08-28T23:55:20.951Z,63.22
2022-08-28T23:57:52.372Z,63.31
